sensor_id;sensor_type;location;lat;lon;timestamp;P1;durP1;ratioP1;P2;durP2;ratioP2
31464;SDS011;18089;47.428;15.006;2023-02-28T00:01:15;18.43;;;16.80;;
31464;SDS011;18089;47.428;15.006;2023-02-28T00:03:47;18.33;;;16.93;;
31464;SDS011;18089;47.428;15.006;2023-02-28T00:06:19;17.73;;;16.43;;
31464;SDS011;18089;47.428;15.006;2023-02-28T00:08:51;15.80;;;14.60;;
31464;SDS011;18089;47.428;15.006;2023-02-28T00:11:24;17.43;;;16.23;;
31464;SDS011;18089;47.428;15.006;2023-02-28T00:13:56;16.93;;;15.83;;
31464;SDS011;18089;47.428;15.006;2023-02-28T00:16:28;17.50;;;16.20;;
31464;SDS011;18089;47.428;15.006;2023-02-28T00:19:00;17.83;;;16.43;;
31464;SDS011;18089;47.428;15.006;2023-02-28T00:21:32;18.07;;;16.33;;
31464;SDS011;18089;47.428;15.006;2023-02-28T00:24:05;18.27;;;16.87;;
31464;SDS011;18089;47.428;15.006;2023-02-28T00:26:39;17.13;;;15.80;;
31464;SDS011;18089;47.428;15.006;2023-02-28T00:29:11;17.00;;;15.90;;
31464;SDS011;18089;47.428;15.006;2023-02-28T00:31:43;17.13;;;15.73;;
31464;SDS011;18089;47.428;15.006;2023-02-28T00:34:15;18.37;;;16.77;;
31464;SDS011;18089;47.428;15.006;2023-02-28T00:36:47;19.47;;;17.80;;
31464;SDS011;18089;47.428;15.006;2023-02-28T00:39:20;17.47;;;16.03;;
31464;SDS011;18089;47.428;15.006;2023-02-28T00:41:53;18.23;;;16.67;;
31464;SDS011;18089;47.428;15.006;2023-02-28T00:44:25;19.37;;;17.47;;
31464;SDS011;18089;47.428;15.006;2023-02-28T00:46:57;17.97;;;16.57;;
31464;SDS011;18089;47.428;15.006;2023-02-28T00:49:29;17.63;;;16.23;;
31464;SDS011;18089;47.428;15.006;2023-02-28T00:52:02;17.43;;;15.93;;
31464;SDS011;18089;47.428;15.006;2023-02-28T00:54:34;18.23;;;16.80;;
31464;SDS011;18089;47.428;15.006;2023-02-28T00:57:08;17.80;;;16.20;;
31464;SDS011;18089;47.428;15.006;2023-02-28T00:59:40;18.20;;;16.70;;
31464;SDS011;18089;47.428;15.006;2023-02-28T01:02:11;17.53;;;16.23;;
31464;SDS011;18089;47.428;15.006;2023-02-28T01:04:44;17.30;;;15.90;;
31464;SDS011;18089;47.428;15.006;2023-02-28T01:07:16;17.47;;;16.07;;
31464;SDS011;18089;47.428;15.006;2023-02-28T01:09:48;18.83;;;17.13;;
31464;SDS011;18089;47.428;15.006;2023-02-28T01:12:21;18.33;;;16.90;;
31464;SDS011;18089;47.428;15.006;2023-02-28T01:14:53;17.80;;;16.30;;
31464;SDS011;18089;47.428;15.006;2023-02-28T01:17:25;17.30;;;16.10;;
31464;SDS011;18089;47.428;15.006;2023-02-28T01:19:57;17.53;;;16.23;;
31464;SDS011;18089;47.428;15.006;2023-02-28T01:22:29;17.87;;;16.50;;
31464;SDS011;18089;47.428;15.006;2023-02-28T01:25:01;18.00;;;16.60;;
31464;SDS011;18089;47.428;15.006;2023-02-28T01:27:35;17.40;;;16.13;;
31464;SDS011;18089;47.428;15.006;2023-02-28T01:30:09;17.60;;;16.40;;
31464;SDS011;18089;47.428;15.006;2023-02-28T01:32:42;17.00;;;15.70;;
31464;SDS011;18089;47.428;15.006;2023-02-28T01:35:14;19.03;;;17.37;;
31464;SDS011;18089;47.428;15.006;2023-02-28T01:37:46;17.90;;;16.47;;
31464;SDS011;18089;47.428;15.006;2023-02-28T01:40:18;18.10;;;16.60;;
31464;SDS011;18089;47.428;15.006;2023-02-28T01:42:52;17.67;;;16.27;;
31464;SDS011;18089;47.428;15.006;2023-02-28T01:45:25;17.17;;;15.83;;
31464;SDS011;18089;47.428;15.006;2023-02-28T01:47:59;18.07;;;16.60;;
31464;SDS011;18089;47.428;15.006;2023-02-28T01:50:34;17.80;;;16.33;;
31464;SDS011;18089;47.428;15.006;2023-02-28T01:53:08;17.80;;;16.17;;
31464;SDS011;18089;47.428;15.006;2023-02-28T01:55:42;17.60;;;16.03;;
31464;SDS011;18089;47.428;15.006;2023-02-28T01:58:19;17.40;;;16.00;;
31464;SDS011;18089;47.428;15.006;2023-02-28T02:00:51;17.80;;;16.50;;
31464;SDS011;18089;47.428;15.006;2023-02-28T02:03:23;17.73;;;16.43;;
31464;SDS011;18089;47.428;15.006;2023-02-28T02:05:56;18.07;;;16.70;;
31464;SDS011;18089;47.428;15.006;2023-02-28T02:08:28;17.30;;;15.90;;
31464;SDS011;18089;47.428;15.006;2023-02-28T02:11:02;18.77;;;17.17;;
31464;SDS011;18089;47.428;15.006;2023-02-28T02:13:41;18.60;;;17.17;;
31464;SDS011;18089;47.428;15.006;2023-02-28T02:16:29;18.70;;;17.07;;
31464;SDS011;18089;47.428;15.006;2023-02-28T02:19:15;17.17;;;15.83;;
31464;SDS011;18089;47.428;15.006;2023-02-28T02:25:03;18.40;;;16.87;;
31464;SDS011;18089;47.428;15.006;2023-02-28T02:31:06;18.70;;;17.20;;
31464;SDS011;18089;47.428;15.006;2023-02-28T02:37:03;17.80;;;16.30;;
31464;SDS011;18089;47.428;15.006;2023-02-28T02:39:44;18.83;;;17.33;;
31464;SDS011;18089;47.428;15.006;2023-02-28T02:42:21;18.70;;;17.13;;
31464;SDS011;18089;47.428;15.006;2023-02-28T02:44:58;19.10;;;17.33;;
31464;SDS011;18089;47.428;15.006;2023-02-28T02:47:32;19.37;;;17.70;;
31464;SDS011;18089;47.428;15.006;2023-02-28T02:50:07;19.97;;;18.17;;
31464;SDS011;18089;47.428;15.006;2023-02-28T02:52:44;19.33;;;17.57;;
31464;SDS011;18089;47.428;15.006;2023-02-28T02:55:18;19.30;;;17.63;;
31464;SDS011;18089;47.428;15.006;2023-02-28T02:57:53;19.53;;;17.93;;
31464;SDS011;18089;47.428;15.006;2023-02-28T03:00:26;18.17;;;16.77;;
31464;SDS011;18089;47.428;15.006;2023-02-28T03:03:01;18.87;;;17.37;;
31464;SDS011;18089;47.428;15.006;2023-02-28T03:05:35;18.73;;;17.23;;
31464;SDS011;18089;47.428;15.006;2023-02-28T03:08:12;18.43;;;16.97;;
31464;SDS011;18089;47.428;15.006;2023-02-28T03:10:46;18.60;;;17.10;;
31464;SDS011;18089;47.428;15.006;2023-02-28T03:16:27;19.70;;;18.00;;
31464;SDS011;18089;47.428;15.006;2023-02-28T03:22:04;18.73;;;17.23;;
31464;SDS011;18089;47.428;15.006;2023-02-28T03:24:48;18.50;;;16.90;;
31464;SDS011;18089;47.428;15.006;2023-02-28T03:27:23;18.80;;;17.13;;
31464;SDS011;18089;47.428;15.006;2023-02-28T03:29:58;20.97;;;19.10;;
31464;SDS011;18089;47.428;15.006;2023-02-28T03:32:33;18.80;;;17.30;;
31464;SDS011;18089;47.428;15.006;2023-02-28T03:35:08;19.37;;;17.53;;
31464;SDS011;18089;47.428;15.006;2023-02-28T03:37:43;18.93;;;17.27;;
31464;SDS011;18089;47.428;15.006;2023-02-28T03:40:19;19.67;;;17.87;;
31464;SDS011;18089;47.428;15.006;2023-02-28T03:42:54;18.13;;;16.77;;
31464;SDS011;18089;47.428;15.006;2023-02-28T03:45:28;19.93;;;18.13;;
31464;SDS011;18089;47.428;15.006;2023-02-28T03:48:02;19.10;;;17.50;;
31464;SDS011;18089;47.428;15.006;2023-02-28T03:50:38;19.17;;;17.47;;
31464;SDS011;18089;47.428;15.006;2023-02-28T03:53:11;20.37;;;18.67;;
31464;SDS011;18089;47.428;15.006;2023-02-28T03:55:49;20.63;;;18.70;;
31464;SDS011;18089;47.428;15.006;2023-02-28T03:58:26;20.77;;;18.77;;
31464;SDS011;18089;47.428;15.006;2023-02-28T04:01:02;20.20;;;18.40;;
31464;SDS011;18089;47.428;15.006;2023-02-28T04:03:39;20.57;;;18.73;;
31464;SDS011;18089;47.428;15.006;2023-02-28T04:06:13;20.70;;;18.70;;
31464;SDS011;18089;47.428;15.006;2023-02-28T04:08:47;19.57;;;17.77;;
31464;SDS011;18089;47.428;15.006;2023-02-28T04:11:22;19.73;;;18.03;;
31464;SDS011;18089;47.428;15.006;2023-02-28T04:13:55;20.50;;;18.50;;
31464;SDS011;18089;47.428;15.006;2023-02-28T04:16:27;22.03;;;19.23;;
31464;SDS011;18089;47.428;15.006;2023-02-28T04:18:59;21.53;;;19.43;;
31464;SDS011;18089;47.428;15.006;2023-02-28T04:21:33;21.40;;;19.30;;
31464;SDS011;18089;47.428;15.006;2023-02-28T04:24:06;22.90;;;20.67;;
31464;SDS011;18089;47.428;15.006;2023-02-28T04:26:45;22.17;;;19.97;;
31464;SDS011;18089;47.428;15.006;2023-02-28T04:29:19;22.53;;;20.47;;
31464;SDS011;18089;47.428;15.006;2023-02-28T04:31:52;22.07;;;19.90;;
31464;SDS011;18089;47.428;15.006;2023-02-28T04:34:25;21.90;;;19.53;;
31464;SDS011;18089;47.428;15.006;2023-02-28T04:36:57;21.67;;;19.57;;
31464;SDS011;18089;47.428;15.006;2023-02-28T04:39:30;22.37;;;19.97;;
31464;SDS011;18089;47.428;15.006;2023-02-28T04:42:07;19.80;;;18.00;;
31464;SDS011;18089;47.428;15.006;2023-02-28T04:44:39;19.40;;;17.73;;
31464;SDS011;18089;47.428;15.006;2023-02-28T04:47:11;19.87;;;18.07;;
31464;SDS011;18089;47.428;15.006;2023-02-28T04:49:43;19.50;;;17.70;;
31464;SDS011;18089;47.428;15.006;2023-02-28T04:52:15;21.67;;;18.20;;
31464;SDS011;18089;47.428;15.006;2023-02-28T04:54:47;20.80;;;18.77;;
31464;SDS011;18089;47.428;15.006;2023-02-28T04:57:20;21.40;;;19.23;;
31464;SDS011;18089;47.428;15.006;2023-02-28T04:59:52;20.70;;;18.43;;
31464;SDS011;18089;47.428;15.006;2023-02-28T05:02:24;20.80;;;18.67;;
31464;SDS011;18089;47.428;15.006;2023-02-28T05:04:56;20.23;;;18.17;;
31464;SDS011;18089;47.428;15.006;2023-02-28T05:07:28;21.00;;;19.07;;
31464;SDS011;18089;47.428;15.006;2023-02-28T05:10:00;19.70;;;17.90;;
31464;SDS011;18089;47.428;15.006;2023-02-28T05:12:34;21.17;;;17.87;;
31464;SDS011;18089;47.428;15.006;2023-02-28T05:15:07;20.77;;;18.73;;
31464;SDS011;18089;47.428;15.006;2023-02-28T05:17:40;20.83;;;18.73;;
31464;SDS011;18089;47.428;15.006;2023-02-28T05:20:13;22.17;;;19.10;;
31464;SDS011;18089;47.428;15.006;2023-02-28T05:22:45;21.00;;;18.73;;
31464;SDS011;18089;47.428;15.006;2023-02-28T05:25:18;21.67;;;19.43;;
31464;SDS011;18089;47.428;15.006;2023-02-28T05:27:54;20.97;;;18.97;;
31464;SDS011;18089;47.428;15.006;2023-02-28T05:30:26;21.30;;;19.13;;
31464;SDS011;18089;47.428;15.006;2023-02-28T05:32:58;27.40;;;21.83;;
31464;SDS011;18089;47.428;15.006;2023-02-28T05:35:30;24.63;;;21.57;;
31464;SDS011;18089;47.428;15.006;2023-02-28T05:38:02;24.33;;;20.40;;
31464;SDS011;18089;47.428;15.006;2023-02-28T05:40:34;22.90;;;20.57;;
31464;SDS011;18089;47.428;15.006;2023-02-28T05:43:08;23.37;;;19.53;;
31464;SDS011;18089;47.428;15.006;2023-02-28T05:45:42;20.70;;;18.70;;
31464;SDS011;18089;47.428;15.006;2023-02-28T05:48:14;23.97;;;20.57;;
31464;SDS011;18089;47.428;15.006;2023-02-28T05:50:46;22.20;;;19.93;;
31464;SDS011;18089;47.428;15.006;2023-02-28T05:53:18;21.93;;;19.63;;
31464;SDS011;18089;47.428;15.006;2023-02-28T05:55:50;21.33;;;19.03;;
31464;SDS011;18089;47.428;15.006;2023-02-28T05:58:24;21.07;;;18.90;;
31464;SDS011;18089;47.428;15.006;2023-02-28T06:01:00;20.57;;;18.67;;
31464;SDS011;18089;47.428;15.006;2023-02-28T06:03:50;20.27;;;18.27;;
31464;SDS011;18089;47.428;15.006;2023-02-28T06:06:22;19.47;;;17.70;;
31464;SDS011;18089;47.428;15.006;2023-02-28T06:08:54;21.50;;;18.13;;
31464;SDS011;18089;47.428;15.006;2023-02-28T06:11:26;19.87;;;17.97;;
31464;SDS011;18089;47.428;15.006;2023-02-28T06:14:00;22.00;;;19.93;;
31464;SDS011;18089;47.428;15.006;2023-02-28T06:16:33;28.10;;;21.60;;
31464;SDS011;18089;47.428;15.006;2023-02-28T06:19:05;26.33;;;22.10;;
31464;SDS011;18089;47.428;15.006;2023-02-28T06:21:38;25.43;;;22.20;;
31464;SDS011;18089;47.428;15.006;2023-02-28T06:24:10;24.17;;;21.60;;
31464;SDS011;18089;47.428;15.006;2023-02-28T06:26:42;29.20;;;20.20;;
31464;SDS011;18089;47.428;15.006;2023-02-28T06:29:15;24.03;;;20.83;;
31464;SDS011;18089;47.428;15.006;2023-02-28T06:31:48;20.73;;;18.60;;
31464;SDS011;18089;47.428;15.006;2023-02-28T06:34:20;22.23;;;19.63;;
31464;SDS011;18089;47.428;15.006;2023-02-28T06:36:52;20.67;;;18.57;;
31464;SDS011;18089;47.428;15.006;2023-02-28T06:39:24;21.17;;;19.13;;
31464;SDS011;18089;47.428;15.006;2023-02-28T06:41:56;20.97;;;18.43;;
31464;SDS011;18089;47.428;15.006;2023-02-28T06:44:30;19.67;;;17.97;;
31464;SDS011;18089;47.428;15.006;2023-02-28T06:47:05;25.87;;;21.73;;
31464;SDS011;18089;47.428;15.006;2023-02-28T06:49:37;22.73;;;19.53;;
31464;SDS011;18089;47.428;15.006;2023-02-28T06:52:09;20.97;;;18.97;;
31464;SDS011;18089;47.428;15.006;2023-02-28T06:54:41;20.00;;;18.07;;
31464;SDS011;18089;47.428;15.006;2023-02-28T06:57:13;20.57;;;18.37;;
31464;SDS011;18089;47.428;15.006;2023-02-28T06:59:47;19.27;;;17.33;;
31464;SDS011;18089;47.428;15.006;2023-02-28T07:02:20;19.60;;;17.83;;
31464;SDS011;18089;47.428;15.006;2023-02-28T07:04:52;19.77;;;17.73;;
31464;SDS011;18089;47.428;15.006;2023-02-28T07:07:24;28.73;;;20.30;;
31464;SDS011;18089;47.428;15.006;2023-02-28T07:09:56;28.87;;;22.83;;
31464;SDS011;18089;47.428;15.006;2023-02-28T07:12:28;37.83;;;26.90;;
31464;SDS011;18089;47.428;15.006;2023-02-28T07:15:02;37.13;;;25.20;;
31464;SDS011;18089;47.428;15.006;2023-02-28T07:17:34;26.60;;;21.87;;
31464;SDS011;18089;47.428;15.006;2023-02-28T07:20:07;22.90;;;19.93;;
31464;SDS011;18089;47.428;15.006;2023-02-28T07:22:40;21.20;;;19.07;;
31464;SDS011;18089;47.428;15.006;2023-02-28T07:25:12;21.37;;;19.37;;
31464;SDS011;18089;47.428;15.006;2023-02-28T07:27:44;20.57;;;18.57;;
31464;SDS011;18089;47.428;15.006;2023-02-28T07:30:17;20.80;;;18.80;;
31464;SDS011;18089;47.428;15.006;2023-02-28T07:32:49;21.83;;;19.73;;
31464;SDS011;18089;47.428;15.006;2023-02-28T07:35:21;21.03;;;19.13;;
31464;SDS011;18089;47.428;15.006;2023-02-28T07:37:54;20.87;;;18.80;;
31464;SDS011;18089;47.428;15.006;2023-02-28T07:40:26;22.80;;;19.73;;
31464;SDS011;18089;47.428;15.006;2023-02-28T07:42:58;21.00;;;18.90;;
31464;SDS011;18089;47.428;15.006;2023-02-28T07:45:31;20.80;;;18.80;;
31464;SDS011;18089;47.428;15.006;2023-02-28T07:48:04;19.77;;;17.87;;
31464;SDS011;18089;47.428;15.006;2023-02-28T07:50:36;23.00;;;19.30;;
31464;SDS011;18089;47.428;15.006;2023-02-28T07:53:08;22.23;;;19.23;;
31464;SDS011;18089;47.428;15.006;2023-02-28T07:55:40;21.80;;;19.60;;
31464;SDS011;18089;47.428;15.006;2023-02-28T07:58:12;24.17;;;19.60;;
31464;SDS011;18089;47.428;15.006;2023-02-28T08:00:46;20.20;;;18.27;;
31464;SDS011;18089;47.428;15.006;2023-02-28T08:03:18;21.37;;;19.13;;
31464;SDS011;18089;47.428;15.006;2023-02-28T08:05:50;20.63;;;18.53;;
31464;SDS011;18089;47.428;15.006;2023-02-28T08:08:23;78.57;;;40.77;;
31464;SDS011;18089;47.428;15.006;2023-02-28T08:11:02;27.70;;;22.37;;
31464;SDS011;18089;47.428;15.006;2023-02-28T08:13:34;23.43;;;20.00;;
31464;SDS011;18089;47.428;15.006;2023-02-28T08:16:08;31.13;;;23.77;;
31464;SDS011;18089;47.428;15.006;2023-02-28T08:18:40;32.07;;;22.43;;
31464;SDS011;18089;47.428;15.006;2023-02-28T08:21:12;22.73;;;17.90;;
31464;SDS011;18089;47.428;15.006;2023-02-28T08:23:45;32.67;;;21.63;;
31464;SDS011;18089;47.428;15.006;2023-02-28T08:26:18;30.20;;;22.60;;
31464;SDS011;18089;47.428;15.006;2023-02-28T08:28:50;26.83;;;21.30;;
31464;SDS011;18089;47.428;15.006;2023-02-28T08:31:23;31.27;;;22.20;;
31464;SDS011;18089;47.428;15.006;2023-02-28T08:33:55;22.30;;;20.00;;
31464;SDS011;18089;47.428;15.006;2023-02-28T08:36:29;20.70;;;18.73;;
31464;SDS011;18089;47.428;15.006;2023-02-28T08:39:01;21.73;;;19.43;;
31464;SDS011;18089;47.428;15.006;2023-02-28T08:41:33;25.03;;;19.47;;
31464;SDS011;18089;47.428;15.006;2023-02-28T08:44:05;22.97;;;19.43;;
31464;SDS011;18089;47.428;15.006;2023-02-28T08:46:39;21.60;;;19.37;;
31464;SDS011;18089;47.428;15.006;2023-02-28T08:49:11;21.87;;;19.67;;
31464;SDS011;18089;47.428;15.006;2023-02-28T08:51:43;21.00;;;18.83;;
31464;SDS011;18089;47.428;15.006;2023-02-28T08:54:15;21.20;;;19.13;;
31464;SDS011;18089;47.428;15.006;2023-02-28T08:56:49;21.40;;;19.30;;
31464;SDS011;18089;47.428;15.006;2023-02-28T08:59:21;21.37;;;19.27;;
31464;SDS011;18089;47.428;15.006;2023-02-28T09:01:54;21.10;;;18.90;;
31464;SDS011;18089;47.428;15.006;2023-02-28T09:04:26;20.90;;;18.30;;
31464;SDS011;18089;47.428;15.006;2023-02-28T09:07:00;21.40;;;19.13;;
31464;SDS011;18089;47.428;15.006;2023-02-28T09:09:32;26.27;;;21.23;;
31464;SDS011;18089;47.428;15.006;2023-02-28T09:12:04;30.87;;;21.57;;
31464;SDS011;18089;47.428;15.006;2023-02-28T09:14:37;51.73;;;27.13;;
31464;SDS011;18089;47.428;15.006;2023-02-28T09:17:10;21.70;;;19.10;;
31464;SDS011;18089;47.428;15.006;2023-02-28T09:19:42;26.83;;;20.10;;
31464;SDS011;18089;47.428;15.006;2023-02-28T09:22:14;28.73;;;21.17;;
31464;SDS011;18089;47.428;15.006;2023-02-28T09:24:46;46.57;;;28.00;;
31464;SDS011;18089;47.428;15.006;2023-02-28T09:27:18;26.50;;;20.13;;
31464;SDS011;18089;47.428;15.006;2023-02-28T09:29:50;26.03;;;20.93;;
31464;SDS011;18089;47.428;15.006;2023-02-28T09:32:24;20.47;;;18.27;;
31464;SDS011;18089;47.428;15.006;2023-02-28T09:34:56;20.03;;;17.93;;
31464;SDS011;18089;47.428;15.006;2023-02-28T09:37:28;20.57;;;18.43;;
31464;SDS011;18089;47.428;15.006;2023-02-28T09:40:01;23.03;;;18.23;;
31464;SDS011;18089;47.428;15.006;2023-02-28T09:42:34;20.33;;;18.27;;
31464;SDS011;18089;47.428;15.006;2023-02-28T09:45:21;21.93;;;19.17;;
31464;SDS011;18089;47.428;15.006;2023-02-28T09:47:58;20.67;;;18.40;;
31464;SDS011;18089;47.428;15.006;2023-02-28T09:50:33;22.53;;;18.30;;
31464;SDS011;18089;47.428;15.006;2023-02-28T09:53:11;22.17;;;19.77;;
31464;SDS011;18089;47.428;15.006;2023-02-28T09:55:47;24.97;;;18.90;;
31464;SDS011;18089;47.428;15.006;2023-02-28T09:58:23;21.37;;;17.93;;
31464;SDS011;18089;47.428;15.006;2023-02-28T10:00:59;29.03;;;20.33;;
31464;SDS011;18089;47.428;15.006;2023-02-28T10:03:36;22.13;;;17.60;;
31464;SDS011;18089;47.428;15.006;2023-02-28T10:06:12;19.27;;;17.10;;
31464;SDS011;18089;47.428;15.006;2023-02-28T10:08:50;20.10;;;18.00;;
31464;SDS011;18089;47.428;15.006;2023-02-28T10:11:30;24.43;;;18.73;;
31464;SDS011;18089;47.428;15.006;2023-02-28T10:14:05;20.90;;;18.70;;
31464;SDS011;18089;47.428;15.006;2023-02-28T10:16:42;24.73;;;19.60;;
31464;SDS011;18089;47.428;15.006;2023-02-28T10:19:20;22.47;;;19.33;;
31464;SDS011;18089;47.428;15.006;2023-02-28T10:21:56;21.30;;;19.07;;
31464;SDS011;18089;47.428;15.006;2023-02-28T10:24:30;25.13;;;18.43;;
31464;SDS011;18089;47.428;15.006;2023-02-28T10:27:09;20.00;;;17.90;;
31464;SDS011;18089;47.428;15.006;2023-02-28T10:29:46;21.07;;;18.87;;
31464;SDS011;18089;47.428;15.006;2023-02-28T10:32:19;22.17;;;18.30;;
31464;SDS011;18089;47.428;15.006;2023-02-28T10:34:54;20.53;;;18.27;;
31464;SDS011;18089;47.428;15.006;2023-02-28T10:37:29;24.47;;;18.47;;
31464;SDS011;18089;47.428;15.006;2023-02-28T10:40:02;21.70;;;18.17;;
31464;SDS011;18089;47.428;15.006;2023-02-28T10:42:35;19.63;;;17.63;;
31464;SDS011;18089;47.428;15.006;2023-02-28T10:45:12;23.80;;;18.17;;
31464;SDS011;18089;47.428;15.006;2023-02-28T10:47:51;22.83;;;18.00;;
31464;SDS011;18089;47.428;15.006;2023-02-28T10:50:31;27.53;;;18.37;;
31464;SDS011;18089;47.428;15.006;2023-02-28T10:53:22;20.70;;;17.70;;
31464;SDS011;18089;47.428;15.006;2023-02-28T10:56:02;22.30;;;17.83;;
31464;SDS011;18089;47.428;15.006;2023-02-28T10:58:44;21.10;;;18.90;;
31464;SDS011;18089;47.428;15.006;2023-02-28T11:01:19;22.33;;;18.33;;
31464;SDS011;18089;47.428;15.006;2023-02-28T11:03:52;18.90;;;17.00;;
31464;SDS011;18089;47.428;15.006;2023-02-28T11:06:26;20.53;;;18.13;;
31464;SDS011;18089;47.428;15.006;2023-02-28T11:09:01;22.23;;;17.83;;
31464;SDS011;18089;47.428;15.006;2023-02-28T11:11:41;23.63;;;18.20;;
31464;SDS011;18089;47.428;15.006;2023-02-28T11:14:17;19.93;;;17.53;;
31464;SDS011;18089;47.428;15.006;2023-02-28T11:16:51;20.17;;;17.83;;
31464;SDS011;18089;47.428;15.006;2023-02-28T11:19:24;22.53;;;17.67;;
31464;SDS011;18089;47.428;15.006;2023-02-28T11:22:00;18.33;;;16.43;;
31464;SDS011;18089;47.428;15.006;2023-02-28T11:24:33;24.33;;;18.17;;
31464;SDS011;18089;47.428;15.006;2023-02-28T11:27:11;21.57;;;17.93;;
31464;SDS011;18089;47.428;15.006;2023-02-28T11:29:57;21.80;;;17.37;;
31464;SDS011;18089;47.428;15.006;2023-02-28T11:32:30;20.67;;;18.17;;
31464;SDS011;18089;47.428;15.006;2023-02-28T11:35:03;20.07;;;17.73;;
31464;SDS011;18089;47.428;15.006;2023-02-28T11:37:38;19.67;;;17.00;;
31464;SDS011;18089;47.428;15.006;2023-02-28T11:40:12;18.17;;;16.33;;
31464;SDS011;18089;47.428;15.006;2023-02-28T11:42:50;18.27;;;16.27;;
31464;SDS011;18089;47.428;15.006;2023-02-28T11:45:36;18.15;;;15.98;;
31464;SDS011;18089;47.428;15.006;2023-02-28T11:48:18;21.90;;;16.20;;
31464;SDS011;18089;47.428;15.006;2023-02-28T11:50:57;17.90;;;16.00;;
31464;SDS011;18089;47.428;15.006;2023-02-28T11:53:39;17.48;;;15.43;;
31464;SDS011;18089;47.428;15.006;2023-02-28T11:56:33;18.42;;;14.88;;
31464;SDS011;18089;47.428;15.006;2023-02-28T11:59:12;22.45;;;15.48;;
31464;SDS011;18089;47.428;15.006;2023-02-28T12:02:00;17.15;;;14.55;;
31464;SDS011;18089;47.428;15.006;2023-02-28T12:04:40;16.77;;;14.98;;
31464;SDS011;18089;47.428;15.006;2023-02-28T12:07:18;17.77;;;15.07;;
31464;SDS011;18089;47.428;15.006;2023-02-28T12:10:01;20.85;;;16.33;;
31464;SDS011;18089;47.428;15.006;2023-02-28T12:12:39;20.10;;;15.82;;
31464;SDS011;18089;47.428;15.006;2023-02-28T12:15:26;16.70;;;15.10;;
31464;SDS011;18089;47.428;15.006;2023-02-28T12:18:17;17.75;;;14.23;;
31464;SDS011;18089;47.428;15.006;2023-02-28T12:21:00;18.48;;;14.10;;
31464;SDS011;18089;47.428;15.006;2023-02-28T12:26:34;16.55;;;13.20;;
31464;SDS011;18089;47.428;15.006;2023-02-28T12:29:10;18.20;;;13.27;;
31464;SDS011;18089;47.428;15.006;2023-02-28T12:31:47;17.05;;;13.05;;
31464;SDS011;18089;47.428;15.006;2023-02-28T12:34:25;14.23;;;12.07;;
31464;SDS011;18089;47.428;15.006;2023-02-28T12:37:01;14.35;;;11.95;;
31464;SDS011;18089;47.428;15.006;2023-02-28T12:39:38;14.35;;;11.45;;
31464;SDS011;18089;47.428;15.006;2023-02-28T12:42:17;13.02;;;11.63;;
31464;SDS011;18089;47.428;15.006;2023-02-28T12:44:54;14.15;;;11.52;;
31464;SDS011;18089;47.428;15.006;2023-02-28T12:47:29;14.68;;;11.80;;
31464;SDS011;18089;47.428;15.006;2023-02-28T12:50:02;12.45;;;11.07;;
31464;SDS011;18089;47.428;15.006;2023-02-28T12:52:39;11.65;;;10.40;;
31464;SDS011;18089;47.428;15.006;2023-02-28T12:55:14;13.10;;;10.00;;
31464;SDS011;18089;47.428;15.006;2023-02-28T12:57:52;13.02;;;9.50;;
31464;SDS011;18089;47.428;15.006;2023-02-28T13:00:32;13.15;;;9.88;;
31464;SDS011;18089;47.428;15.006;2023-02-28T13:03:13;12.25;;;9.68;;
31464;SDS011;18089;47.428;15.006;2023-02-28T13:06:20;12.85;;;8.95;;
31464;SDS011;18089;47.428;15.006;2023-02-28T13:09:04;11.57;;;10.38;;
31464;SDS011;18089;47.428;15.006;2023-02-28T13:11:40;13.20;;;11.00;;
31464;SDS011;18089;47.428;15.006;2023-02-28T13:14:20;11.65;;;10.55;;
31464;SDS011;18089;47.428;15.006;2023-02-28T13:16:56;14.65;;;11.35;;
31464;SDS011;18089;47.428;15.006;2023-02-28T13:19:30;12.85;;;10.55;;
31464;SDS011;18089;47.428;15.006;2023-02-28T13:22:03;11.20;;;10.02;;
31464;SDS011;18089;47.428;15.006;2023-02-28T13:24:40;13.63;;;11.40;;
31464;SDS011;18089;47.428;15.006;2023-02-28T13:33:31;17.23;;;12.43;;
31464;SDS011;18089;47.428;15.006;2023-02-28T13:36:08;14.40;;;10.65;;
31464;SDS011;18089;47.428;15.006;2023-02-28T13:38:42;13.20;;;10.48;;
31464;SDS011;18089;47.428;15.006;2023-02-28T13:44:13;13.13;;;10.80;;
31464;SDS011;18089;47.428;15.006;2023-02-28T13:49:56;13.73;;;11.35;;
31464;SDS011;18089;47.428;15.006;2023-02-28T13:52:48;12.75;;;10.50;;
31464;SDS011;18089;47.428;15.006;2023-02-28T13:55:24;12.88;;;10.90;;
31464;SDS011;18089;47.428;15.006;2023-02-28T13:58:10;12.10;;;10.90;;
31464;SDS011;18089;47.428;15.006;2023-02-28T14:01:00;12.82;;;10.10;;
31464;SDS011;18089;47.428;15.006;2023-02-28T14:03:43;12.63;;;11.25;;
31464;SDS011;18089;47.428;15.006;2023-02-28T14:06:25;12.43;;;11.13;;
31464;SDS011;18089;47.428;15.006;2023-02-28T14:09:00;13.93;;;12.52;;
31464;SDS011;18089;47.428;15.006;2023-02-28T14:11:38;13.55;;;12.15;;
31464;SDS011;18089;47.428;15.006;2023-02-28T14:17:25;12.98;;;11.60;;
31464;SDS011;18089;47.428;15.006;2023-02-28T14:19:57;12.90;;;11.60;;
31464;SDS011;18089;47.428;15.006;2023-02-28T14:22:43;12.85;;;11.50;;
31464;SDS011;18089;47.428;15.006;2023-02-28T14:25:23;13.75;;;11.48;;
31464;SDS011;18089;47.428;15.006;2023-02-28T14:28:05;18.63;;;11.93;;
31464;SDS011;18089;47.428;15.006;2023-02-28T14:30:59;12.45;;;10.82;;
31464;SDS011;18089;47.428;15.006;2023-02-28T14:33:38;12.23;;;11.02;;
31464;SDS011;18089;47.428;15.006;2023-02-28T14:36:31;14.98;;;13.45;;
31464;SDS011;18089;47.428;15.006;2023-02-28T14:39:07;14.55;;;13.07;;
31464;SDS011;18089;47.428;15.006;2023-02-28T14:41:44;15.85;;;14.25;;
31464;SDS011;18089;47.428;15.006;2023-02-28T14:44:17;15.63;;;14.10;;
31464;SDS011;18089;47.428;15.006;2023-02-28T14:46:52;14.77;;;13.30;;
31464;SDS011;18089;47.428;15.006;2023-02-28T14:49:26;15.88;;;14.13;;
31464;SDS011;18089;47.428;15.006;2023-02-28T14:52:04;14.80;;;13.38;;
31464;SDS011;18089;47.428;15.006;2023-02-28T14:54:41;15.95;;;14.13;;
31464;SDS011;18089;47.428;15.006;2023-02-28T14:57:23;14.05;;;12.65;;
31464;SDS011;18089;47.428;15.006;2023-02-28T14:59:57;13.77;;;12.27;;
31464;SDS011;18089;47.428;15.006;2023-02-28T15:02:33;17.02;;;13.85;;
31464;SDS011;18089;47.428;15.006;2023-02-28T15:05:19;15.63;;;14.13;;
31464;SDS011;18089;47.428;15.006;2023-02-28T15:08:01;19.08;;;13.73;;
31464;SDS011;18089;47.428;15.006;2023-02-28T15:10:39;15.15;;;13.63;;
31464;SDS011;18089;47.428;15.006;2023-02-28T15:13:12;18.02;;;14.15;;
31464;SDS011;18089;47.428;15.006;2023-02-28T15:15:46;16.17;;;13.88;;
31464;SDS011;18089;47.428;15.006;2023-02-28T15:18:22;15.13;;;13.13;;
31464;SDS011;18089;47.428;15.006;2023-02-28T15:20:58;17.38;;;12.93;;
31464;SDS011;18089;47.428;15.006;2023-02-28T15:23:34;12.55;;;11.35;;
31464;SDS011;18089;47.428;15.006;2023-02-28T15:26:09;12.23;;;10.82;;
31464;SDS011;18089;47.428;15.006;2023-02-28T15:28:43;13.50;;;10.52;;